createdAt,value
2023-03-13T00:00:35.527Z,61.58
2023-03-13T00:01:35.747Z,61.53
2023-03-13T00:02:35.997Z,60.55
2023-03-13T00:03:36.207Z,58.04
2023-03-13T00:04:36.470Z,58.78
2023-03-13T00:05:36.660Z,58.70
2023-03-13T00:06:36.876Z,58.08
2023-03-13T00:07:37.078Z,57.33
2023-03-13T00:08:37.289Z,56.48
2023-03-13T00:09:37.478Z,57.40
2023-03-13T00:10:37.644Z,58.74
2023-03-13T00:11:37.908Z,60.65
2023-03-13T00:12:38.119Z,61.44
2023-03-13T00:13:38.219Z,60.12
2023-03-13T00:14:38.535Z,60.01
2023-03-13T00:15:38.723Z,58.55
2023-03-13T00:16:38.986Z,59.36
2023-03-13T00:17:39.151Z,59.86
2023-03-13T00:18:39.425Z,59.91
2023-03-13T00:19:39.465Z,61.41
2023-03-13T00:20:39.715Z,61.10
2023-03-13T00:21:39.853Z,62.08
2023-03-13T00:22:40.013Z,62.48
2023-03-13T00:23:40.178Z,61.28
2023-03-13T00:24:40.313Z,60.84
2023-03-13T00:25:40.469Z,59.61
2023-03-13T00:26:40.673Z,59.97
2023-03-13T00:27:40.814Z,58.29
2023-03-13T00:28:40.952Z,57.77
2023-03-13T00:29:41.036Z,56.79
2023-03-13T00:30:41.200Z,56.14
2023-03-13T00:31:41.244Z,60.21
2023-03-13T00:32:41.374Z,60.21
2023-03-13T00:33:41.463Z,58.38
2023-03-13T00:34:41.571Z,57.66
2023-03-13T00:35:41.701Z,57.52
2023-03-13T00:36:41.784Z,56.43
2023-03-13T00:37:41.901Z,56.13
2023-03-13T00:38:42.037Z,57.70
2023-03-13T00:39:42.147Z,59.79
2023-03-13T00:40:42.260Z,60.68
2023-03-13T00:41:42.418Z,59.28
2023-03-13T00:42:42.533Z,58.55
2023-03-13T00:43:42.683Z,59.06
2023-03-13T00:44:42.774Z,59.01
2023-03-13T00:45:42.896Z,57.88
2023-03-13T00:46:43.014Z,57.28
2023-03-13T00:47:43.096Z,57.59
2023-03-13T00:48:43.183Z,58.46
2023-03-13T00:49:43.295Z,59.16
2023-03-13T00:50:43.383Z,58.23
2023-03-13T00:51:43.470Z,57.39
2023-03-13T00:52:43.526Z,57.74
2023-03-13T00:53:43.595Z,57.04
2023-03-13T00:54:43.680Z,57.58
2023-03-13T00:55:43.745Z,57.48
2023-03-13T00:56:43.825Z,57.93
2023-03-13T00:57:43.899Z,57.11
2023-03-13T00:58:43.985Z,57.14
2023-03-13T00:59:44.069Z,56.75
2023-03-13T01:00:44.139Z,56.02
2023-03-13T01:01:44.215Z,56.17
2023-03-13T01:02:44.388Z,57.19
2023-03-13T01:03:44.377Z,55.09
2023-03-13T01:04:44.475Z,56.11
2023-03-13T01:05:44.564Z,54.80
2023-03-13T01:06:44.667Z,54.24
2023-03-13T01:07:44.763Z,53.96
2023-03-13T01:08:44.859Z,53.45
2023-03-13T01:09:44.937Z,53.58
2023-03-13T01:10:45.028Z,54.86
2023-03-13T01:11:45.116Z,54.28
2023-03-13T01:12:45.210Z,54.26
2023-03-13T01:13:45.290Z,53.50
2023-03-13T01:14:45.387Z,53.45
2023-03-13T01:15:45.477Z,52.76
2023-03-13T01:16:45.525Z,53.29
2023-03-13T01:17:45.599Z,55.36
2023-03-13T01:18:45.670Z,56.38
2023-03-13T01:19:45.828Z,57.43
2023-03-13T01:20:45.818Z,58.03
2023-03-13T01:21:45.909Z,57.47
2023-03-13T01:22:45.976Z,58.12
2023-03-13T01:23:46.077Z,55.34
2023-03-13T01:24:46.153Z,55.05
2023-03-13T01:25:46.193Z,57.79
2023-03-13T01:26:46.302Z,58.43
2023-03-13T01:27:46.419Z,59.21
2023-03-13T01:28:46.587Z,59.45
2023-03-13T01:29:46.711Z,59.55
2023-03-13T01:30:46.919Z,60.34
2023-03-13T01:31:47.011Z,61.02
2023-03-13T01:32:47.204Z,61.58
2023-03-13T01:34:47.354Z,62.84
2023-03-13T01:35:47.511Z,62.52
2023-03-13T01:36:47.609Z,62.05
2023-03-13T01:37:47.675Z,59.69
2023-03-13T01:38:47.788Z,61.25
2023-03-13T01:39:47.858Z,62.95
2023-03-13T01:40:47.957Z,63.72
2023-03-13T01:41:48.042Z,63.60
2023-03-13T01:42:48.271Z,64.44
2023-03-13T01:43:48.499Z,64.57
2023-03-13T01:44:48.724Z,64.16
2023-03-13T01:57:50.670Z,57.06
2023-03-13T01:58:50.729Z,56.61
2023-03-13T01:59:50.790Z,55.68
2023-03-13T02:00:50.844Z,56.37
2023-03-13T02:01:50.967Z,57.63
2023-03-13T02:28:53.346Z,56.90
2023-03-13T02:29:53.417Z,55.77
2023-03-13T03:34:00.624Z,58.37
2023-03-13T03:35:00.758Z,58.80
2023-03-13T03:36:00.929Z,58.63
2023-03-13T03:37:01.022Z,58.53
2023-03-13T03:38:01.110Z,58.23
2023-03-13T03:39:01.228Z,57.76
2023-03-13T03:40:01.428Z,56.88
2023-03-13T04:23:10.759Z,51.18
2023-03-13T04:24:10.983Z,51.49
2023-03-13T04:25:11.221Z,51.68
2023-03-13T04:26:11.434Z,52.01
2023-03-13T04:27:11.683Z,53.59
2023-03-13T04:28:11.877Z,53.33
2023-03-13T04:29:12.110Z,53.15
2023-03-13T04:30:12.363Z,53.44
2023-03-13T04:31:12.604Z,52.52
2023-03-13T04:32:12.852Z,51.79
2023-03-13T04:33:13.062Z,50.50
2023-03-13T04:34:13.267Z,50.98
2023-03-13T04:35:13.575Z,50.08
2023-03-13T04:36:13.752Z,50.36
2023-03-13T04:37:14.044Z,50.93
2023-03-13T04:38:14.296Z,51.83
2023-03-13T04:39:14.529Z,51.94
2023-03-13T04:40:14.755Z,52.05
2023-03-13T04:41:15.004Z,52.03
2023-03-13T04:42:15.228Z,51.89
2023-03-13T04:43:15.480Z,51.40
2023-03-13T04:44:15.661Z,51.80
2023-03-13T04:45:15.847Z,49.09
2023-03-13T04:46:16.143Z,48.78
2023-03-13T04:47:16.280Z,48.90
2023-03-13T04:48:16.473Z,50.16
2023-03-13T04:49:16.779Z,51.21
2023-03-13T04:50:17.015Z,52.46
2023-03-13T04:51:17.233Z,54.05
2023-03-13T04:52:17.378Z,54.01
2023-03-13T04:53:17.633Z,54.61
2023-03-13T04:54:17.879Z,53.88
2023-03-13T05:07:20.792Z,55.44
2023-03-13T05:08:21.040Z,55.75
2023-03-13T05:09:21.249Z,55.35
2023-03-13T05:10:21.471Z,55.82
2023-03-13T05:50:30.782Z,50.37
2023-03-13T05:51:31.095Z,50.92
2023-03-13T05:52:31.300Z,51.10
2023-03-13T05:53:31.520Z,51.71
2023-03-13T05:54:31.719Z,51.17
2023-03-13T05:55:32.022Z,52.34
2023-03-13T05:56:32.236Z,52.16
2023-03-13T05:57:32.469Z,52.45
2023-03-13T05:58:32.695Z,51.12
2023-03-13T05:59:32.927Z,48.66
2023-03-13T06:35:54.849Z,48.67
2023-03-13T06:37:40.920Z,49.61
2023-03-13T06:38:40.989Z,49.32
2023-03-13T07:42:50.716Z,37.10
2023-03-13T07:43:50.976Z,39.45
2023-03-13T07:44:51.155Z,40.71
2023-03-13T07:45:51.306Z,42.31
2023-03-13T07:46:51.586Z,42.07
2023-03-13T07:47:51.796Z,42.63
2023-03-13T07:48:52.768Z,42.38
2023-03-13T07:49:52.035Z,42.19
2023-03-13T07:50:52.066Z,41.17
2023-03-13T07:51:52.058Z,42.39
2023-03-13T07:52:52.127Z,42.85
2023-03-13T07:53:52.110Z,42.92
2023-03-13T07:54:52.149Z,44.09
2023-03-13T07:55:52.155Z,43.95
2023-03-13T07:56:52.316Z,43.93
2023-03-13T07:57:52.253Z,44.02
2023-03-13T07:58:52.318Z,43.85
2023-03-13T07:59:52.361Z,43.50
2023-03-13T08:00:52.420Z,41.42
2023-03-13T08:01:53.279Z,40.62
2023-03-13T08:02:52.489Z,40.11
2023-03-13T08:03:52.595Z,42.35
2023-03-13T08:04:52.543Z,42.23
2023-03-13T08:05:52.565Z,38.77
2023-03-13T08:06:52.630Z,39.18
2023-03-13T08:07:52.661Z,37.23
2023-03-13T08:08:52.703Z,37.41
2023-03-13T08:09:52.739Z,38.15
2023-03-13T08:10:52.790Z,40.41
2023-03-13T08:11:52.879Z,40.57
2023-03-13T08:12:52.926Z,38.05
2023-03-13T08:13:52.982Z,37.38
2023-03-13T08:14:53.023Z,38.51
2023-03-13T08:15:53.085Z,39.40
2023-03-13T08:16:53.225Z,38.98
2023-03-13T08:17:53.175Z,37.42
2023-03-13T08:18:53.211Z,36.95
2023-03-13T08:19:53.246Z,37.08
2023-03-13T08:20:53.312Z,37.74
2023-03-13T08:21:53.351Z,36.34
2023-03-13T08:22:53.401Z,36.55
2023-03-13T08:23:53.464Z,35.63
2023-03-13T08:24:53.510Z,35.72
2023-03-13T08:25:53.623Z,35.72
2023-03-13T08:26:53.582Z,35.30
2023-03-13T08:27:53.618Z,35.25
2023-03-13T08:28:53.660Z,35.23
2023-03-13T08:29:53.713Z,36.01
2023-03-13T08:30:53.936Z,35.87
2023-03-13T08:31:54.056Z,35.00
2023-03-13T08:32:54.330Z,35.00
2023-03-13T08:33:54.406Z,34.66
2023-03-13T08:34:54.562Z,34.28
2023-03-13T08:35:54.789Z,35.15
2023-03-13T08:36:54.910Z,34.58
2023-03-13T08:37:55.155Z,34.36
2023-03-13T08:38:55.366Z,35.08
2023-03-13T08:39:55.483Z,36.71
2023-03-13T08:40:56.305Z,36.89
2023-03-13T08:41:55.657Z,36.53
2023-03-13T08:42:55.664Z,37.07
2023-03-13T08:43:55.682Z,39.11
2023-03-13T08:44:57.307Z,37.32
2023-03-13T08:45:56.357Z,36.88
2023-03-13T08:46:55.708Z,36.73
2023-03-13T08:47:55.718Z,36.90
2023-03-13T08:48:55.754Z,36.46
2023-03-13T08:49:55.799Z,36.12
2023-03-13T08:50:55.823Z,36.84
2023-03-13T08:51:55.898Z,37.48
2023-03-13T08:52:55.898Z,35.25
2023-03-13T08:53:55.957Z,37.69
2023-03-13T08:54:55.881Z,38.33
2023-03-13T08:55:55.859Z,37.01
2023-03-13T08:56:55.843Z,35.65
2023-03-13T08:57:55.815Z,36.45
2023-03-13T08:58:55.808Z,36.38
2023-03-13T08:59:55.779Z,36.25
2023-03-13T09:00:56.753Z,36.21
2023-03-13T09:01:57.293Z,35.73
2023-03-13T09:02:56.321Z,35.76
2023-03-13T09:03:55.752Z,35.78
2023-03-13T09:04:55.654Z,35.32
2023-03-13T09:05:56.641Z,34.62
2023-03-13T09:06:55.598Z,34.95
2023-03-13T09:07:55.560Z,34.78
2023-03-13T10:51:02.363Z,32.14
2023-03-13T10:56:00.746Z,31.76
2023-03-13T10:57:00.956Z,31.56
2023-03-13T10:58:01.156Z,32.24
2023-03-13T10:59:01.337Z,30.94
2023-03-13T11:00:03.795Z,31.09
2023-03-13T11:01:01.370Z,31.54
2023-03-13T11:02:01.250Z,32.07
2023-03-13T11:03:01.263Z,31.82
2023-03-13T11:04:01.080Z,33.00
2023-03-13T11:05:00.913Z,32.36
2023-03-13T11:06:00.770Z,31.86
2023-03-13T11:07:00.653Z,31.71
2023-03-13T11:35:00.690Z,30.97
2023-03-13T11:36:00.907Z,31.08
2023-03-13T11:37:01.027Z,30.53
2023-03-13T11:38:01.178Z,30.16
2023-03-13T11:39:01.406Z,30.74
2023-03-13T11:40:01.556Z,30.26
2023-03-13T11:41:01.766Z,30.66
2023-03-13T11:42:01.906Z,30.71
2023-03-13T11:43:06.510Z,30.24
2023-03-13T11:44:02.955Z,30.08
2023-03-13T11:45:01.818Z,30.24
2023-03-13T11:46:01.808Z,29.03
2023-03-13T11:47:01.707Z,28.64
2023-03-13T11:48:01.415Z,28.64
2023-03-13T11:49:01.294Z,28.54
2023-03-13T11:50:01.136Z,28.52
2023-03-13T11:51:01.050Z,27.92
2023-03-13T11:52:00.867Z,28.22
2023-03-13T11:53:00.754Z,27.95
2023-03-13T12:08:00.625Z,27.30
2023-03-13T12:09:00.731Z,27.15
2023-03-13T12:10:00.844Z,27.90
2023-03-13T12:15:01.664Z,27.76
2023-03-13T14:09:10.631Z,29.94
2023-03-13T14:10:10.822Z,29.88
2023-03-13T14:11:10.857Z,29.98
2023-03-13T14:12:11.918Z,29.34
2023-03-13T14:13:10.805Z,29.32
2023-03-13T14:14:10.684Z,29.86
2023-03-13T14:18:10.735Z,29.53
2023-03-13T14:19:11.551Z,29.88
2023-03-13T14:32:10.722Z,29.37
2023-03-13T14:33:10.961Z,29.49
2023-03-13T14:34:11.026Z,28.95
2023-03-13T14:35:11.271Z,29.32
2023-03-13T14:36:11.449Z,29.22
2023-03-13T14:37:18.241Z,29.07
2023-03-13T14:38:12.323Z,29.25
2023-03-13T14:39:11.150Z,29.08
2023-03-13T14:40:10.961Z,29.08
2023-03-13T14:41:10.895Z,28.88
2023-03-13T14:42:11.069Z,29.30
2023-03-13T14:43:11.215Z,29.48
2023-03-13T14:44:11.383Z,29.64
2023-03-13T14:45:11.524Z,29.77
2023-03-13T14:46:11.661Z,29.68
2023-03-13T14:47:11.900Z,29.76
2023-03-13T14:48:12.020Z,30.15
2023-03-13T14:49:12.200Z,29.98
2023-03-13T14:50:12.322Z,30.35
2023-03-13T14:51:15.917Z,30.50
2023-03-13T14:52:12.283Z,31.07
2023-03-13T14:53:12.101Z,30.79
2023-03-13T14:54:12.001Z,30.81
2023-03-13T14:55:12.170Z,30.81
2023-03-13T14:56:12.421Z,31.04
2023-03-13T14:57:12.522Z,31.10
2023-03-13T14:58:12.683Z,30.97
2023-03-13T14:59:12.861Z,31.04
2023-03-13T15:00:13.023Z,31.35
2023-03-13T15:01:13.213Z,31.79
2023-03-13T15:02:13.414Z,31.71
2023-03-13T15:03:13.557Z,31.55
2023-03-13T15:04:13.851Z,31.65
2023-03-13T15:05:14.134Z,31.94
2023-03-13T15:06:14.109Z,32.07
2023-03-13T15:07:14.210Z,32.04
2023-03-13T15:08:14.558Z,31.71
2023-03-13T15:09:14.559Z,32.15
2023-03-13T15:10:14.825Z,32.44
2023-03-13T15:11:14.900Z,32.48
2023-03-13T15:12:15.065Z,32.42
2023-03-13T15:13:14.975Z,32.71
2023-03-13T15:14:14.726Z,32.77
2023-03-13T15:15:14.619Z,32.77
2023-03-13T15:16:14.827Z,32.94
2023-03-13T15:17:14.957Z,33.00
2023-03-13T15:18:15.124Z,32.92
2023-03-13T15:19:15.299Z,33.14
2023-03-13T15:20:15.483Z,33.22
2023-03-13T15:21:15.562Z,33.41
2023-03-13T15:22:15.745Z,33.69
2023-03-13T15:23:15.884Z,33.73
2023-03-13T15:24:16.051Z,33.57
2023-03-13T15:25:16.275Z,33.31
2023-03-13T15:26:16.391Z,33.87
2023-03-13T15:27:16.561Z,33.54
2023-03-13T15:28:16.739Z,34.05
2023-03-13T15:29:16.866Z,34.16
2023-03-13T15:30:16.996Z,34.46
2023-03-13T15:31:17.307Z,35.08
2023-03-13T15:32:17.447Z,35.63
2023-03-13T15:33:17.558Z,35.75
2023-03-13T15:34:17.720Z,35.97
2023-03-13T15:35:17.856Z,36.23
2023-03-13T15:36:18.090Z,36.25
2023-03-13T15:37:18.193Z,35.53
2023-03-13T15:38:18.395Z,35.42
2023-03-13T15:39:18.529Z,35.53
2023-03-13T15:40:18.737Z,36.14
2023-03-13T15:41:18.869Z,36.24
2023-03-13T15:42:19.067Z,36.48
2023-03-13T15:43:19.210Z,36.28
2023-03-13T15:44:19.357Z,36.30
2023-03-13T15:45:19.501Z,36.43
2023-03-13T15:46:19.764Z,36.44
2023-03-13T15:47:19.871Z,36.71
2023-03-13T15:48:19.973Z,36.87
2023-03-13T15:49:20.111Z,37.33
2023-03-13T15:50:20.358Z,37.54
2023-03-13T15:51:20.458Z,37.79
2023-03-13T15:52:20.609Z,37.86
2023-03-13T15:53:20.736Z,37.96
2023-03-13T15:54:20.886Z,37.60
2023-03-13T15:55:21.075Z,37.30
2023-03-13T15:56:21.271Z,37.25
2023-03-13T15:57:21.416Z,37.51
2023-03-13T15:58:21.558Z,37.65
2023-03-13T15:59:21.696Z,37.75
2023-03-13T16:00:21.849Z,38.00
2023-03-13T16:01:22.159Z,38.08
2023-03-13T16:02:22.234Z,38.09
2023-03-13T16:03:22.371Z,38.04
2023-03-13T16:04:22.613Z,38.41
2023-03-13T16:05:22.704Z,38.75
2023-03-13T16:06:22.919Z,38.82
2023-03-13T16:07:23.065Z,38.29
2023-03-13T16:08:34.653Z,38.09
2023-03-13T16:09:24.062Z,38.45
2023-03-13T16:10:25.247Z,38.60
2023-03-13T16:11:22.798Z,38.62
2023-03-13T16:12:22.668Z,38.73
2023-03-13T16:13:22.543Z,38.73
2023-03-13T16:14:22.412Z,38.78
2023-03-13T16:15:22.296Z,38.71
2023-03-13T16:16:22.203Z,38.80
2023-03-13T16:17:22.042Z,38.76
2023-03-13T16:18:21.928Z,38.71
2023-03-13T16:19:21.771Z,38.91
2023-03-13T16:20:21.694Z,38.98
2023-03-13T16:21:21.526Z,38.65
2023-03-13T16:22:21.404Z,38.74
2023-03-13T16:23:21.292Z,38.86
2023-03-13T16:24:21.183Z,38.97
2023-03-13T16:25:21.031Z,39.17
2023-03-13T16:26:20.905Z,39.25
2023-03-13T16:27:20.769Z,38.79
2023-03-13T16:28:20.684Z,39.18
2023-03-13T16:29:20.521Z,38.93
2023-03-13T16:30:20.410Z,39.22
2023-03-13T16:31:20.454Z,39.47
2023-03-13T16:32:20.188Z,39.47
2023-03-13T16:33:20.025Z,39.60
2023-03-13T16:34:19.904Z,39.93
2023-03-13T16:35:19.820Z,40.49
2023-03-13T16:36:19.681Z,40.22
2023-03-13T16:37:19.534Z,40.22
2023-03-13T16:38:19.417Z,40.69
2023-03-13T16:39:19.305Z,40.67
2023-03-13T16:40:19.206Z,40.48
2023-03-13T16:41:19.069Z,40.46
2023-03-13T16:42:19.012Z,40.39
2023-03-13T16:43:18.917Z,40.36
2023-03-13T16:44:18.789Z,40.41
2023-03-13T16:45:18.665Z,40.29
2023-03-13T16:46:18.540Z,40.28
2023-03-13T16:47:18.412Z,40.53
2023-03-13T16:48:18.287Z,40.56
2023-03-13T16:49:18.278Z,40.77
2023-03-13T17:03:20.633Z,41.75
2023-03-13T17:04:20.777Z,42.24
2023-03-13T17:05:20.957Z,41.69
2023-03-13T17:06:21.093Z,42.01
2023-03-13T17:07:21.246Z,41.71
2023-03-13T17:08:21.390Z,42.01
2023-03-13T17:09:21.557Z,42.20
2023-03-13T17:10:21.796Z,42.62
2023-03-13T17:11:21.814Z,43.30
2023-03-13T17:12:21.937Z,43.35
2023-03-13T17:13:22.071Z,43.15
2023-03-13T17:14:22.331Z,43.27
2023-03-13T17:15:22.560Z,43.10
2023-03-13T17:16:22.677Z,42.92
2023-03-13T17:17:22.817Z,42.89
2023-03-13T17:18:23.020Z,42.80
2023-03-13T17:19:23.195Z,42.63
2023-03-13T17:20:23.422Z,42.99
2023-03-13T17:21:23.569Z,43.38
2023-03-13T17:22:23.680Z,44.02
2023-03-13T18:06:30.620Z,44.29
2023-03-13T18:07:30.761Z,44.13
2023-03-13T18:08:30.911Z,44.08
2023-03-13T18:09:31.130Z,44.08
2023-03-13T18:10:31.266Z,43.86
2023-03-13T18:11:31.456Z,43.75
2023-03-13T18:12:31.598Z,44.03
2023-03-13T18:13:31.761Z,43.96
2023-03-13T18:14:31.929Z,43.86
2023-03-13T18:15:32.240Z,43.42
2023-03-13T18:16:32.322Z,43.25
2023-03-13T18:17:32.456Z,43.32
2023-03-13T18:18:32.647Z,43.72
2023-03-13T18:19:32.789Z,43.51
2023-03-13T19:03:40.683Z,44.85
2023-03-13T19:04:40.905Z,44.98
2023-03-13T19:05:41.050Z,44.80
2023-03-13T19:06:41.244Z,44.66
2023-03-13T19:07:41.442Z,44.74
2023-03-13T19:08:41.672Z,44.68
2023-03-13T19:09:43.960Z,44.70
2023-03-13T19:10:41.819Z,44.66
2023-03-13T19:11:41.703Z,44.56
2023-03-13T19:12:41.649Z,44.26
2023-03-13T19:13:41.576Z,43.54
2023-03-13T19:14:41.518Z,44.56
2023-03-13T19:15:41.465Z,44.74
2023-03-13T19:16:41.508Z,45.61
2023-03-13T19:17:41.377Z,46.51
2023-03-13T19:18:41.344Z,46.04
2023-03-13T19:19:41.291Z,46.22
2023-03-13T19:20:41.244Z,46.14
2023-03-13T19:21:41.209Z,46.01
2023-03-13T19:22:41.164Z,45.93
2023-03-13T19:23:41.113Z,45.80
2023-03-13T19:24:41.058Z,45.85
2023-03-13T19:25:40.989Z,45.81
2023-03-13T19:26:40.948Z,45.86
2023-03-13T19:27:40.883Z,45.91
2023-03-13T19:28:40.828Z,45.51
2023-03-13T19:29:40.782Z,45.48
2023-03-13T19:30:40.728Z,45.34
2023-03-13T19:31:40.738Z,45.21
2023-03-13T19:32:40.660Z,45.20
2023-03-13T20:35:40.712Z,44.79
2023-03-13T20:36:40.900Z,44.85
2023-03-13T20:37:41.051Z,44.84
2023-03-13T20:38:41.220Z,45.12
2023-03-13T20:39:41.430Z,45.22
2023-03-13T20:40:41.630Z,46.19
2023-03-13T20:41:41.791Z,45.69
2023-03-13T20:42:41.994Z,45.39
2023-03-13T20:43:42.213Z,45.18
2023-03-13T20:44:42.365Z,45.26
2023-03-13T20:45:42.567Z,45.48
2023-03-13T21:31:50.771Z,47.09
2023-03-13T21:32:51.009Z,47.38
2023-03-13T21:33:51.135Z,47.43
2023-03-13T21:34:51.277Z,47.61
2023-03-13T21:35:51.554Z,46.88
2023-03-13T21:36:51.693Z,48.26
2023-03-13T21:37:51.899Z,48.50
2023-03-13T21:38:52.023Z,49.02
2023-03-13T21:39:52.239Z,49.32
2023-03-13T21:40:52.401Z,48.70
2023-03-13T21:41:52.613Z,48.26
2023-03-13T21:42:52.816Z,47.89
2023-03-13T21:43:52.998Z,48.67
2023-03-13T21:44:53.133Z,49.44
2023-03-13T21:45:53.378Z,49.92
2023-03-13T21:46:53.587Z,48.89
2023-03-13T21:47:53.733Z,49.83
2023-03-13T21:48:53.907Z,49.32
2023-03-13T21:49:54.136Z,48.61
2023-03-13T21:50:54.326Z,47.93
2023-03-13T21:51:54.453Z,47.92
2023-03-13T21:52:54.648Z,47.85
2023-03-13T21:53:54.854Z,48.43
2023-03-13T21:54:54.998Z,48.53
2023-03-13T21:55:55.143Z,48.93
2023-03-13T21:56:55.331Z,48.74
2023-03-13T21:57:55.552Z,48.25
2023-03-13T21:58:55.690Z,47.28
2023-03-13T22:26:00.766Z,45.67
2023-03-13T22:27:00.927Z,46.21
2023-03-13T22:28:01.141Z,46.87
2023-03-13T22:29:01.421Z,46.63
2023-03-13T22:30:01.561Z,48.21
2023-03-13T22:31:01.702Z,47.05
2023-03-13T22:32:01.880Z,46.58
2023-03-13T22:33:02.150Z,46.38
2023-03-13T22:34:02.297Z,46.43
2023-03-13T22:35:02.522Z,46.74
2023-03-13T22:36:02.668Z,46.22
2023-03-13T22:38:03.005Z,45.91
2023-03-13T22:39:03.185Z,45.74
2023-03-13T22:40:03.387Z,45.91
2023-03-13T22:41:03.581Z,45.80
2023-03-13T22:43:04.011Z,45.84
2023-03-13T22:44:04.163Z,45.83
2023-03-13T22:45:04.340Z,46.02
2023-03-13T22:46:04.633Z,45.92
2023-03-13T22:47:04.747Z,45.76
2023-03-13T22:49:05.123Z,47.38
